Time;durP1;ratioP1;P1;durP2;ratioP2;P2;SDS_P1;SDS_P2;PMS_P1;PMS_P2;Temp;Humidity;BMP_temperature;BMP_pressure;BME280_temperature;BME280_humidity;BME280_pressure;Samples;Min_cycle;Max_cycle;Signal;HPM_P1;HPM_P2
2023/03/16 00:01:06;;;;;;;6.07;3.55;;;;;;;3.84;72.63;101815.94;6217590;23;20021;-75
2023/03/16 00:03:33;;;;;;;4.68;3.65;;;;;;;3.84;72.81;101823.81;6216723;23;20021;-76
2023/03/16 00:05:59;;;;;;;4.43;3.35;;;;;;;3.86;72.92;101818.94;6219385;22;20025;-76
2023/03/16 00:08:26;;;;;;;5.50;4.18;;;;;;;3.88;72.99;101824.59;6217814;23;20020;-75
2023/03/16 00:10:52;;;;;;;6.50;3.63;;;;;;;3.87;73.50;101817.81;6218373;23;20068;-75
2023/03/16 00:13:25;;;;;;;5.30;4.45;;;;;;;3.85;73.36;101823.47;6219102;23;20023;-75
2023/03/16 00:15:54;;;;;;;6.00;3.90;;;;;;;3.85;73.68;101806.91;6219972;22;20017;-76
2023/03/16 00:18:26;;;;;;;4.22;3.83;;;;;;;3.87;73.47;101810.69;6218440;22;20515;-75
2023/03/16 00:20:54;;;;;;;9.57;4.15;;;;;;;3.87;73.52;101802.78;6217701;23;20359;-75
2023/03/16 00:23:26;;;;;;;5.38;4.20;;;;;;;3.87;73.96;101800.16;6219229;22;20017;-75
2023/03/16 00:25:57;;;;;;;;;;;;;;;3.87;73.48;101802.03;6220664;22;20040;-75
2023/03/16 00:28:25;;;;;;;4.75;3.72;;;;;;;3.85;74.20;101799.75;6219508;22;19920;-75
2023/03/16 00:30:57;;;;;;;4.20;3.80;;;;;;;3.86;74.30;101790.72;6219913;22;20025;-75
2023/03/16 00:33:25;;;;;;;7.00;4.07;;;;;;;3.86;74.45;101795.25;6217286;23;20017;-75
2023/03/16 00:36:00;;;;;;;7.70;4.20;;;;;;;3.86;74.41;101789.97;6219810;22;20017;-75
2023/03/16 00:38:30;;;;;;;5.65;4.20;;;;;;;3.86;74.70;101782.06;6217427;23;20031;-75
2023/03/16 00:40:57;;;;;;;6.55;4.45;;;;;;;3.86;74.87;101782.06;6217927;23;20032;-76
2023/03/16 00:43:26;;;;;;;4.30;3.78;;;;;;;3.86;74.83;101779.44;6219211;22;20020;-75
2023/03/16 00:46:05;;;;;;;9.50;4.57;;;;;;;3.88;74.90;101772.69;6219265;22;20079;-75
2023/03/16 00:48:36;;;;;;;9.30;4.85;;;;;;;3.88;75.08;101777.19;6218520;22;20044;-76
2023/03/16 00:51:05;;;;;;;6.07;4.07;;;;;;;3.87;75.52;101770.41;6219244;22;20079;-75
2023/03/16 00:53:33;;;;;;;6.47;4.80;;;;;;;3.87;75.20;101765.13;6218983;22;20448;-75
2023/03/16 00:56:03;;;;;;;5.57;4.90;;;;;;;3.88;75.74;101777.94;6219112;22;20448;-75
2023/03/16 00:58:34;;;;;;;7.15;4.82;;;;;;;3.87;75.87;101771.16;6219000;22;20055;-75
2023/03/16 01:01:10;;;;;;;5.23;4.73;;;;;;;3.88;76.00;101758.75;6218963;23;20039;-75
2023/03/16 01:03:36;;;;;;;6.38;4.60;;;;;;;3.88;75.92;101756.88;6216938;23;20017;-75
2023/03/16 01:06:09;;;;;;;5.43;4.40;;;;;;;3.88;76.09;101753.47;6218846;22;20017;-75
2023/03/16 01:08:37;;;;;;;5.55;4.95;;;;;;;3.88;76.30;101741.06;6217280;23;20072;-75
2023/03/16 01:11:10;;;;;;;5.45;4.57;;;;;;;3.88;76.46;101738.44;6217000;23;20096;-75
2023/03/16 01:13:37;;;;;;;5.45;4.85;;;;;;;3.88;76.94;101740.31;6217752;23;20021;-75
2023/03/16 01:16:05;;;;;;;7.60;5.05;;;;;;;3.87;76.93;101734.28;6216407;23;20017;-75
2023/03/16 01:18:33;;;;;;;6.47;4.93;;;;;;;3.88;76.83;101729.78;6218521;22;20092;-75
2023/03/16 01:21:02;;;;;;;9.95;5.25;;;;;;;3.88;77.12;101727.13;6216809;23;20049;-75
2023/03/16 01:23:31;;;;;;;6.32;5.20;;;;;;;3.89;77.21;101728.66;6216919;23;20104;-75
2023/03/16 01:25:58;;;;;;;9.40;5.40;;;;;;;3.88;77.46;101735.03;6217020;23;20021;-75
2023/03/16 01:28:28;;;;;;;4.88;4.45;;;;;;;3.88;77.51;101727.91;6216773;23;20028;-75
2023/03/16 01:31:04;;;;;;;6.53;5.47;;;;;;;3.88;77.59;101719.25;6216933;23;20025;-75
2023/03/16 01:33:32;;;;;;;5.00;4.60;;;;;;;3.88;77.47;101717.34;6218246;23;20017;-75
2023/03/16 01:36:20;;;;;;;8.40;5.22;;;;;;;3.88;77.71;101716.59;6218228;23;20402;-75
2023/03/16 01:38:57;;;;;;;8.43;5.00;;;;;;;3.88;78.01;101711.34;6218477;23;20017;-74
2023/03/16 01:41:26;;;;;;;6.38;4.68;;;;;;;3.88;77.89;101703.44;6220048;22;20068;-75
2023/03/16 01:43:57;;;;;;;5.32;4.82;;;;;;;3.88;78.46;101704.19;6220376;23;20017;-75
2023/03/16 01:46:27;;;;;;;7.60;5.03;;;;;;;3.88;78.58;101698.91;6217322;23;20455;-75
2023/03/16 01:49:11;;;;;;;6.22;4.88;;;;;;;3.90;78.22;101698.56;6218363;23;20439;-75
2023/03/16 01:51:49;;;;;;;8.88;4.78;;;;;;;3.89;78.56;101702.31;6220531;22;20052;-76
2023/03/16 01:54:24;;;;;;;6.38;5.40;;;;;;;3.88;78.55;101698.91;6192646;23;20068;-75
2023/03/16 01:57:01;;;;;;;8.80;5.35;;;;;;;3.90;78.46;101701.19;6218547;23;20447;-75
2023/03/16 01:59:45;;;;;;;6.53;5.07;;;;;;;3.90;78.29;101683.50;6217704;23;20448;-75
2023/03/16 02:02:14;;;;;;;6.07;4.82;;;;;;;3.90;78.73;101678.22;6217932;23;20410;-75
2023/03/16 02:04:47;;;;;;;8.05;4.95;;;;;;;3.91;78.80;101671.09;6218582;23;20574;-75
2023/03/16 02:07:20;;;;;;;10.70;5.72;;;;;;;3.90;79.19;101678.22;6217957;23;20017;-75
2023/03/16 02:09:50;;;;;;;7.32;5.50;;;;;;;3.90;79.06;101672.22;6193244;23;20021;-75
2023/03/16 02:12:18;;;;;;;7.88;5.35;;;;;;;3.91;78.94;101671.84;6217894;23;20456;-75
2023/03/16 02:14:50;;;;;;;5.95;5.35;;;;;;;3.90;79.41;101662.41;6193860;23;20096;-75
2023/03/16 02:17:21;;;;;;;7.43;5.30;;;;;;;3.92;79.24;101662.06;6217502;23;20052;-75
2023/03/16 02:19:57;;;;;;;6.57;5.45;;;;;;;3.92;79.60;101662.81;6218736;23;20028;-75
2023/03/16 02:22:24;;;;;;;9.23;5.43;;;;;;;3.92;79.55;101656.78;6218155;23;20060;-75
2023/03/16 02:24:54;;;;;;;8.40;5.38;;;;;;;3.93;79.40;101650.41;6220415;22;20013;-75
2023/03/16 02:27:31;;;;;;;7.35;5.50;;;;;;;3.94;79.80;101644.75;6219378;22;20017;-75
2023/03/16 02:30:10;;;;;;;7.90;5.05;;;;;;;3.95;79.84;101648.91;6217526;23;20350;-75
2023/03/16 02:32:52;;;;;;;5.50;5.00;;;;;;;3.97;79.72;101649.28;6218156;23;20025;-75
2023/03/16 02:35:20;;;;;;;5.90;5.32;;;;;;;3.98;79.78;101647.41;6217458;23;20048;-75
2023/03/16 02:37:48;;;;;;;7.00;5.40;;;;;;;3.98;80.21;101647.41;6218667;23;20056;-75
2023/03/16 02:40:22;;;;;;;10.25;5.65;;;;;;;3.98;80.17;101644.75;6219471;22;20072;-75
2023/03/16 02:43:23;;;;;;;5.93;5.13;;;;;;;3.99;80.33;101641.00;6217351;23;20058;-75
2023/03/16 02:46:05;;;;;;;8.00;4.88;;;;;;;3.98;81.03;101653.44;6206004;23;20091;-75
2023/03/16 02:48:41;;;;;;;4.93;4.40;;;;;;;4.00;80.92;101647.75;6218134;23;20021;-75
2023/03/16 02:51:09;;;;;;;7.32;5.50;;;;;;;4.00;81.12;101655.66;6193092;23;20032;-75
2023/03/16 02:53:36;;;;;;;6.03;5.43;;;;;;;4.00;81.73;101655.66;6220033;23;20024;-75
2023/03/16 02:56:03;;;;;;;6.38;4.95;;;;;;;4.00;81.36;101663.56;6219803;23;20076;-75
2023/03/16 02:58:32;;;;;;;5.40;4.57;;;;;;;3.99;81.11;101662.84;6192650;23;20490;-75
2023/03/16 03:01:03;;;;;;;6.38;4.75;;;;;;;3.99;81.43;101654.94;6217440;23;20028;-75
2023/03/16 03:03:33;;;;;;;7.13;5.13;;;;;;;3.99;81.89;101662.09;6217499;23;20478;-76
2023/03/16 03:06:00;;;;;;;11.52;5.28;;;;;;;3.98;82.45;101655.31;6218204;23;20013;-75
2023/03/16 03:08:33;;;;;;;9.15;5.38;;;;;;;3.98;81.93;101647.41;6218311;23;20052;-75
2023/03/16 03:11:00;;;;;;;6.68;5.13;;;;;;;3.96;82.25;101647.03;6217705;23;20510;-75
2023/03/16 03:13:27;;;;;;;7.00;5.05;;;;;;;3.97;82.04;101646.66;6217223;23;20028;-75
2023/03/16 03:15:54;;;;;;;5.68;4.80;;;;;;;3.97;82.21;101643.25;6220153;23;20020;-75
2023/03/16 03:18:24;;;;;;;5.63;5.03;;;;;;;3.97;82.67;101638.00;6217729;23;20097;-75
2023/03/16 03:20:51;;;;;;;8.73;5.13;;;;;;;3.96;82.43;101644.38;6218133;23;20546;-75
2023/03/16 03:23:18;;;;;;;5.28;4.78;;;;;;;3.97;82.30;101640.63;6192618;23;20434;-75
2023/03/16 03:25:44;;;;;;;5.75;5.13;;;;;;;3.95;83.07;101635.72;6220016;23;20136;-75
2023/03/16 03:28:13;;;;;;;5.80;5.03;;;;;;;3.94;82.76;101630.81;6216701;23;20020;-75
2023/03/16 03:30:40;;;;;;;5.13;4.60;;;;;;;3.94;83.13;101634.22;6217890;23;20017;-75
2023/03/16 03:33:07;;;;;;;6.30;5.15;;;;;;;3.94;83.19;101633.47;6217973;23;20076;-75
2023/03/16 03:35:33;;;;;;;4.60;4.20;;;;;;;3.93;83.46;101632.72;6218518;23;20020;-74
2023/03/16 03:38:00;;;;;;;7.00;5.40;;;;;;;3.93;83.29;101631.94;6217659;23;20021;-75
2023/03/16 03:40:27;;;;;;;6.55;4.80;;;;;;;3.93;83.41;101613.50;6217949;23;20084;-74
2023/03/16 03:43:00;;;;;;;7.85;5.10;;;;;;;3.91;83.70;101608.59;6217443;23;20136;-76
2023/03/16 03:45:28;;;;;;;6.57;5.20;;;;;;;3.90;84.20;101606.34;6217285;23;20024;-76
2023/03/16 03:47:55;;;;;;;6.18;5.57;;;;;;;3.89;84.06;101602.22;6219920;22;20117;-76
2023/03/16 03:50:22;;;;;;;7.68;5.22;;;;;;;3.86;84.19;101597.69;6217527;23;20096;-76
2023/03/16 03:52:56;;;;;;;6.43;5.07;;;;;;;3.86;84.64;101597.69;6217941;23;20414;-74
2023/03/16 03:55:24;;;;;;;6.00;5.10;;;;;;;3.85;85.02;101585.63;6216389;23;20048;-76
2023/03/16 03:57:51;;;;;;;7.68;5.22;;;;;;;3.83;86.02;101588.63;6219868;23;20394;-76
2023/03/16 04:00:19;;;;;;;5.70;4.95;;;;;;;3.83;85.93;101593.16;6217163;23;20017;-75
2023/03/16 04:02:46;;;;;;;6.10;5.15;;;;;;;3.80;86.30;101584.13;6217827;23;20032;-75
2023/03/16 04:05:24;;;;;;;6.78;5.20;;;;;;;3.80;87.07;101589.38;6217511;23;20021;-76
2023/03/16 04:07:53;;;;;;;5.72;4.93;;;;;;;3.79;87.62;101595.78;6219697;22;20470;-76
2023/03/16 04:10:20;;;;;;;8.45;5.53;;;;;;;3.77;87.96;101592.75;6218461;22;20017;-75
2023/03/16 04:12:46;;;;;;;10.10;5.30;;;;;;;3.76;87.67;101578.06;6219747;23;20021;-76
2023/03/16 04:15:13;;;;;;;5.45;4.90;;;;;;;3.74;88.05;101569.78;6218943;22;20024;-76
2023/03/16 04:18:00;;;;;;;8.70;4.70;;;;;;;3.74;88.25;101579.56;6217596;23;20021;-76
2023/03/16 04:20:28;;;;;;;8.27;5.07;;;;;;;3.72;87.79;101581.81;6217283;23;20021;-76
2023/03/16 04:22:57;;;;;;;5.95;5.32;;;;;;;3.69;88.10;101573.53;6217669;23;20018;-75
2023/03/16 04:25:25;;;;;;;6.03;4.70;;;;;;;3.69;88.53;101568.28;6219148;23;20013;-76
2023/03/16 04:27:52;;;;;;;6.03;5.43;;;;;;;3.68;88.74;101564.13;6218025;23;20849;-76
2023/03/16 04:30:22;;;;;;;6.28;4.90;;;;;;;3.67;88.74;101570.53;6217782;23;20047;-76
2023/03/16 04:32:53;;;;;;;9.07;5.13;;;;;;;3.66;88.92;101568.25;6217716;23;20021;-74
2023/03/16 04:35:21;;;;;;;5.63;5.00;;;;;;;3.65;89.13;101564.88;6217241;23;20410;-76
2023/03/16 04:37:51;;;;;;;5.45;4.75;;;;;;;3.66;89.05;101569.00;6217696;23;20025;-75
2023/03/16 04:40:23;;;;;;;12.13;5.30;;;;;;;3.65;88.55;101572.78;6217177;23;20411;-75
2023/03/16 04:42:58;;;;;;;5.47;4.80;;;;;;;3.65;88.54;101572.78;6217367;23;20029;-76
2023/03/16 04:45:25;;;;;;;6.00;4.65;;;;;;;3.65;88.94;101569.38;6217359;23;20017;-76
2023/03/16 04:47:55;;;;;;;5.28;4.78;;;;;;;3.65;88.10;101575.41;6217556;23;20104;-76
2023/03/16 04:50:22;;;;;;;7.32;5.47;;;;;;;3.67;88.15;101572.41;6217082;23;20017;-76
2023/03/16 04:52:51;;;;;;;5.40;4.90;;;;;;;3.67;88.67;101564.50;6217297;23;20058;-74
2023/03/16 04:55:19;;;;;;;6.47;4.93;;;;;;;3.66;88.24;101563.75;6216187;23;20021;-76
2023/03/16 04:57:46;;;;;;;7.25;4.75;;;;;;;3.68;88.16;101566.75;6217349;23;20028;-76
2023/03/16 05:00:17;;;;;;;4.80;4.05;;;;;;;3.68;88.03;101563.38;6216469;23;20064;-75
2023/03/16 05:03:03;;;;;;;6.28;4.93;;;;;;;3.68;88.39;101563.38;6217239;23;20021;-76
2023/03/16 05:05:29;;;;;;;10.55;5.50;;;;;;;3.69;88.40;101570.16;6217262;23;20013;-76
2023/03/16 05:07:56;;;;;;;6.35;4.78;;;;;;;3.69;88.39;101565.63;6192580;23;20025;-75
2023/03/16 05:10:26;;;;;;;5.88;4.45;;;;;;;3.71;88.01;101569.78;6218321;23;20021;-75
2023/03/16 05:12:53;;;;;;;14.88;4.82;;;;;;;3.71;88.34;101564.50;6218605;23;20021;-75
2023/03/16 05:15:20;;;;;;;7.32;4.82;;;;;;;3.72;87.89;101568.66;6217715;23;20017;-76
2023/03/16 05:17:56;;;;;;;5.35;3.78;;;;;;;3.73;87.81;101559.63;6218152;23;20422;-75
2023/03/16 05:20:24;;;;;;;5.45;4.07;;;;;;;3.75;87.67;101565.28;6218480;23;20683;-76
2023/03/16 05:22:54;;;;;;;6.07;4.88;;;;;;;3.75;87.99;101560.00;6217962;23;20031;-76
2023/03/16 05:25:27;;;;;;;5.15;4.65;;;;;;;3.75;87.60;101552.13;6195172;23;20455;-75
2023/03/16 05:27:56;;;;;;;6.85;4.38;;;;;;;3.74;87.66;101554.00;6218371;23;20486;-76
2023/03/16 05:30:39;;;;;;;5.95;4.85;;;;;;;3.75;88.23;101552.88;6218672;23;20398;-74
2023/03/16 05:33:10;;;;;;;6.22;4.63;;;;;;;3.74;88.23;101556.63;6217857;23;20474;-75
2023/03/16 05:35:38;;;;;;;4.28;3.88;;;;;;;3.75;87.75;101557.38;6243683;22;20483;-74
2023/03/16 05:38:08;;;;;;;5.20;4.78;;;;;;;3.75;88.08;101555.50;6217057;23;20080;-75
2023/03/16 05:40:38;;;;;;;7.80;4.60;;;;;;;3.75;88.40;101554.75;6220247;22;20021;-74
2023/03/16 05:43:20;;;;;;;5.03;3.97;;;;;;;3.76;88.92;101551.00;6217424;23;20463;-74
2023/03/16 05:45:49;;;;;;;4.70;4.30;;;;;;;3.75;88.70;101552.88;6218444;23;20013;-74
2023/03/16 05:48:17;;;;;;;4.55;4.15;;;;;;;3.75;88.49;101544.97;6193565;23;20402;-74
2023/03/16 05:50:49;;;;;;;5.13;4.60;;;;;;;3.76;88.63;101545.72;6220357;22;20017;-76
2023/03/16 05:53:27;;;;;;;7.82;4.68;;;;;;;3.77;89.17;101544.59;6194507;23;20021;-75
2023/03/16 05:56:00;;;;;;;7.55;4.75;;;;;;;3.75;89.35;101539.69;6218131;23;20046;-75
2023/03/16 05:58:32;;;;;;;6.57;4.82;;;;;;;3.76;89.72;101535.19;6193254;23;20355;-75
2023/03/16 06:01:03;;;;;;;9.93;4.65;;;;;;;3.76;90.13;101529.91;6217643;23;20075;-75
2023/03/16 06:03:30;;;;;;;4.85;4.40;;;;;;;3.77;90.01;101532.19;6218335;23;20047;-75
2023/03/16 06:05:58;;;;;;;4.10;3.78;;;;;;;3.77;89.60;101534.06;6219301;22;20032;-75
2023/03/16 06:08:29;;;;;;;6.45;4.20;;;;;;;3.78;89.49;101532.94;6218343;23;20021;-75
2023/03/16 06:11:04;;;;;;;4.47;4.05;;;;;;;3.78;90.07;101530.31;6217899;23;20041;-75
2023/03/16 06:13:31;;;;;;;5.20;3.78;;;;;;;3.79;89.82;101537.06;6217815;23;20064;-75
2023/03/16 06:15:59;;;;;;;4.47;4.10;;;;;;;3.80;90.23;101528.81;6218072;23;20080;-75
2023/03/16 06:18:26;;;;;;;4.45;4.00;;;;;;;3.80;90.47;101528.81;6217975;23;20017;-75
2023/03/16 06:20:52;;;;;;;4.05;3.75;;;;;;;3.81;89.63;101530.31;6217663;23;20017;-75
2023/03/16 06:23:20;;;;;;;6.65;4.10;;;;;;;3.83;89.60;101529.94;6217411;23;20418;-75
2023/03/16 06:25:47;;;;;;;6.97;4.15;;;;;;;3.83;89.54;101511.50;6193597;23;20017;-75
2023/03/16 06:28:16;;;;;;;7.55;4.65;;;;;;;3.85;89.62;101522.41;6217388;23;20013;-75
2023/03/16 06:30:42;;;;;;;4.25;3.42;;;;;;;3.87;89.99;101520.91;6193115;23;20017;-75
2023/03/16 06:33:09;;;;;;;5.38;3.78;;;;;;;3.89;89.69;101515.28;6217627;23;20026;-75
2023/03/16 06:35:35;;;;;;;5.57;4.20;;;;;;;3.91;89.21;101518.28;6219378;22;20447;-76
2023/03/16 06:38:10;;;;;;;6.30;4.53;;;;;;;3.93;89.91;101514.16;6242965;22;20014;-75
2023/03/16 06:40:57;;;;;;;6.30;4.10;;;;;;;3.97;89.71;101514.16;6218176;23;20447;-76
2023/03/16 06:43:24;;;;;;;5.47;3.95;;;;;;;3.99;89.49;101512.66;6218094;23;20017;-75
2023/03/16 06:45:52;;;;;;;5.40;3.85;;;;;;;4.01;89.60;101502.47;6217914;23;20053;-75
2023/03/16 06:48:19;;;;;;;5.05;3.70;;;;;;;4.04;89.71;101500.97;6217700;23;20437;-75
2023/03/16 06:50:46;;;;;;;8.75;3.90;;;;;;;4.05;89.89;101499.84;6217757;23;20017;-75
2023/03/16 06:53:18;;;;;;;6.03;4.30;;;;;;;4.07;90.59;101507.38;6193538;23;20414;-76
2023/03/16 06:55:45;;;;;;;5.00;3.15;;;;;;;4.10;89.96;101509.25;6218402;23;20017;-76
2023/03/16 06:58:11;;;;;;;4.22;3.47;;;;;;;4.15;90.19;101507.00;6217443;23;20021;-76
2023/03/16 07:00:38;;;;;;;4.32;2.53;;;;;;;4.20;90.07;101509.28;6218176;23;20407;-74
2023/03/16 07:03:05;;;;;;;4.00;3.60;;;;;;;4.25;90.22;101503.63;6217822;23;20033;-76
2023/03/16 07:05:33;;;;;;;5.68;4.07;;;;;;;4.30;90.46;101505.88;6217200;23;20333;-75
2023/03/16 07:08:01;;;;;;;10.32;4.20;;;;;;;4.35;90.53;101494.97;6218538;23;20068;-76
2023/03/16 07:10:27;;;;;;;3.40;3.10;;;;;;;4.39;90.65;101494.22;6218562;23;20028;-76
2023/03/16 07:12:54;;;;;;;5.47;3.17;;;;;;;4.41;90.05;101492.69;6193883;23;20466;-76
2023/03/16 07:15:21;;;;;;;3.97;3.28;;;;;;;4.42;89.92;101493.44;6218397;23;20104;-76
2023/03/16 07:17:48;;;;;;;4.60;3.35;;;;;;;4.42;89.61;101491.53;6218827;23;20024;-76
2023/03/16 07:20:15;;;;;;;4.45;3.13;;;;;;;4.44;89.24;101491.16;6219483;22;20024;-76
2023/03/16 07:22:42;;;;;;;6.05;4.10;;;;;;;4.45;88.95;101490.78;6219195;23;20095;-75
2023/03/16 07:25:10;;;;;;;8.07;3.33;;;;;;;4.47;88.73;101504.34;6218004;23;20028;-76
2023/03/16 07:27:44;;;;;;;6.88;4.05;;;;;;;4.50;88.76;101493.06;6218550;23;20017;-75
2023/03/16 07:30:13;;;;;;;5.07;3.47;;;;;;;4.51;88.52;101491.16;6217586;23;20459;-76
2023/03/16 07:32:41;;;;;;;3.75;3.45;;;;;;;4.51;89.00;101489.28;6218284;23;20072;-75
2023/03/16 07:35:10;;;;;;;3.72;3.22;;;;;;;4.50;88.96;101484.38;6218153;23;20475;-76
2023/03/16 07:37:37;;;;;;;6.82;3.53;;;;;;;4.50;89.25;101487.78;6193695;23;20096;-77
2023/03/16 07:40:07;;;;;;;5.82;3.75;;;;;;;4.50;89.51;101490.41;6220545;22;20096;-77
2023/03/16 07:42:35;;;;;;;4.45;4.05;;;;;;;4.50;89.28;101495.69;6193928;23;20046;-76
2023/03/16 07:45:13;;;;;;;6.25;3.80;;;;;;;4.50;89.66;101495.69;6217985;23;20069;-77
2023/03/16 07:47:41;;;;;;;5.50;3.92;;;;;;;4.50;89.47;101489.66;6218007;23;20021;-77
2023/03/16 07:50:18;;;;;;;7.45;4.20;;;;;;;4.48;90.00;101492.69;6194667;23;20036;-76
2023/03/16 07:52:46;;;;;;;4.47;3.92;;;;;;;4.50;89.40;101492.28;6218332;23;20473;-77
2023/03/16 07:55:14;;;;;;;5.47;4.07;;;;;;;4.50;89.47;101494.94;6220066;22;20013;-76
2023/03/16 07:57:41;;;;;;;6.20;3.42;;;;;;;4.52;89.63;101498.69;6218327;23;20021;-76
2023/03/16 08:00:09;;;;;;;5.55;3.70;;;;;;;4.54;89.42;101501.72;6217998;23;20017;-76
2023/03/16 08:02:40;;;;;;;;;;;;;;;4.56;88.52;101501.34;6218243;23;20026;-76
2023/03/16 08:05:09;;;;;;;3.60;3.28;;;;;;;4.58;89.35;101499.81;6218052;23;19920;-76
2023/03/16 08:07:38;;;;;;;5.97;4.20;;;;;;;4.62;89.88;101494.53;6218399;23;20395;-76
2023/03/16 08:10:15;;;;;;;8.55;3.97;;;;;;;4.70;89.67;101501.31;6217932;23;20079;-75
2023/03/16 08:12:48;;;;;;;3.92;3.53;;;;;;;4.78;89.85;101487.00;6193305;23;20021;-76
2023/03/16 08:15:15;;;;;;;4.50;3.40;;;;;;;4.87;89.27;101483.94;6217438;23;20021;-75
2023/03/16 08:17:42;;;;;;;3.80;3.50;;;;;;;4.98;89.25;101482.75;6217089;23;20048;-75
2023/03/16 08:20:14;;;;;;;9.63;3.67;;;;;;;5.09;88.51;101472.16;6217668;23;20021;-76
2023/03/16 08:22:45;;;;;;;5.10;3.72;;;;;;;5.21;88.72;101476.25;6217666;23;20445;-76
2023/03/16 08:25:15;;;;;;;7.20;4.00;;;;;;;5.27;88.23;101475.47;6217402;23;20013;-74
2023/03/16 08:27:51;;;;;;;4.18;3.47;;;;;;;5.33;88.03;101462.63;6218283;23;20037;-74
2023/03/16 08:30:18;;;;;;;4.13;3.72;;;;;;;5.35;87.92;101465.63;6217488;23;20429;-74
2023/03/16 08:32:53;;;;;;;6.53;3.58;;;;;;;5.35;87.42;101469.03;6217106;23;20053;-74
2023/03/16 08:35:20;;;;;;;4.00;3.58;;;;;;;5.41;87.42;101473.91;6217781;23;20368;-74
2023/03/16 08:37:48;;;;;;;4.97;3.90;;;;;;;5.44;87.42;101481.06;6193035;23;20025;-74
2023/03/16 08:40:17;;;;;;;4.15;3.25;;;;;;;5.46;87.41;101478.78;6217812;23;20071;-76
2023/03/16 08:42:48;;;;;;;6.05;3.70;;;;;;;5.48;87.60;101479.91;6217835;23;20048;-74
2023/03/16 08:45:16;;;;;;;4.53;3.83;;;;;;;5.51;86.87;101476.50;6216961;23;20076;-74
2023/03/16 08:47:43;;;;;;;3.83;3.42;;;;;;;5.53;86.79;101481.38;6217710;23;20068;-73
2023/03/16 08:50:12;;;;;;;4.43;3.72;;;;;;;5.58;86.48;101478.34;6217477;23;20037;-73
2023/03/16 08:52:39;;;;;;;4.80;4.13;;;;;;;5.62;86.32;101477.16;6217966;23;20017;-74
2023/03/16 08:55:09;;;;;;;4.68;4.05;;;;;;;5.68;85.49;101482.78;6218059;23;20013;-74
2023/03/16 08:57:38;;;;;;;5.38;3.90;;;;;;;5.70;84.99;101478.63;6219653;22;20013;-74
2023/03/16 09:00:11;;;;;;;9.65;4.07;;;;;;;5.74;85.20;101473.31;6218882;23;20021;-73
2023/03/16 09:02:40;;;;;;;3.83;3.50;;;;;;;5.78;84.20;101468.00;6219386;22;20027;-74
2023/03/16 09:05:13;;;;;;;6.43;3.58;;;;;;;5.81;84.46;101477.81;6217992;23;20017;-74
2023/03/16 09:07:41;;;;;;;6.80;3.60;;;;;;;5.86;83.65;101469.47;6219639;22;20021;-74
2023/03/16 09:10:12;;;;;;;6.78;3.45;;;;;;;5.91;83.72;101463.81;6219422;22;20439;-75
2023/03/16 09:12:39;;;;;;;6.30;4.00;;;;;;;5.94;83.10;101468.31;6219317;22;20079;-75
2023/03/16 09:15:07;;;;;;;4.93;3.80;;;;;;;5.96;83.38;101469.44;6217178;23;20017;-73
2023/03/16 09:17:35;;;;;;;3.95;3.60;;;;;;;6.00;82.46;101466.72;6219453;22;20116;-76
2023/03/16 09:20:04;;;;;;;3.55;3.25;;;;;;;6.03;82.45;101463.31;6219061;23;20017;-76
2023/03/16 09:22:47;;;;;;;4.43;4.03;;;;;;;6.03;83.08;101460.66;6219050;23;20443;-76
2023/03/16 09:25:14;;;;;;;3.83;3.33;;;;;;;6.03;82.58;101469.34;6217081;23;20406;-75
2023/03/16 09:27:41;;;;;;;4.88;3.60;;;;;;;6.07;82.27;101468.56;6219260;23;20013;-75
2023/03/16 09:30:09;;;;;;;6.15;3.67;;;;;;;6.07;82.22;101468.56;6218671;23;20013;-75
2023/03/16 09:32:36;;;;;;;4.03;3.53;;;;;;;6.06;82.12;101459.88;6218983;22;20025;-74
2023/03/16 09:35:05;;;;;;;4.32;3.85;;;;;;;6.06;82.08;101461.78;6218975;22;20014;-74
2023/03/16 09:37:32;;;;;;;4.25;3.85;;;;;;;6.07;81.87;101464.03;6217278;23;20083;-74
2023/03/16 09:40:19;;;;;;;5.10;4.00;;;;;;;6.09;82.18;101461.75;6218445;22;20021;-75
2023/03/16 09:43:13;;;;;;;6.00;3.83;;;;;;;6.13;81.80;101461.72;6217440;23;20028;-75
2023/03/16 09:45:58;;;;;;;5.85;2.92;;;;;;;6.17;81.58;101452.63;6219007;23;20023;-76
2023/03/16 09:48:30;;;;;;;6.10;3.83;;;;;;;6.25;81.38;101445.38;6218797;23;20013;-79
2023/03/16 09:50:59;;;;;;;5.88;3.80;;;;;;;6.35;80.92;101447.19;6217338;23;20025;-75
2023/03/16 09:53:30;;;;;;;4.47;3.53;;;;;;;6.46;80.71;101449.69;6219161;22;20025;-75
2023/03/16 09:56:02;;;;;;;11.80;7.10;;;;;;;6.60;80.57;101454.84;6220622;22;20013;-75
2023/03/16 09:58:31;;;;;;;3.83;3.53;;;;;;;6.67;79.84;101452.88;6219396;22;20017;-76
2023/03/16 10:01:00;;;;;;;6.05;3.95;;;;;;;6.76;79.52;101449.78;6220278;23;20059;-75
2023/03/16 10:03:40;;;;;;;4.85;3.35;;;;;;;6.87;79.02;101439.03;6220134;22;20017;-75
2023/03/16 10:06:11;;;;;;;4.35;3.95;;;;;;;7.01;78.53;101442.28;6218787;23;20013;-77
2023/03/16 10:08:44;;;;;;;4.63;3.80;;;;;;;7.18;77.80;101431.88;6220539;22;20458;-76
2023/03/16 10:11:30;;;;;;;3.30;2.95;;;;;;;7.31;77.52;101424.84;6220235;23;20491;-77
2023/03/16 10:14:10;;;;;;;5.07;3.53;;;;;;;7.51;77.42;101432.91;6220069;23;20021;-77
2023/03/16 10:16:38;;;;;;;6.63;4.07;;;;;;;7.66;76.01;101423.59;6220473;22;20076;-76
2023/03/16 10:19:24;;;;;;;4.03;3.50;;;;;;;7.78;76.59;101427.56;6220223;22;20013;-77
2023/03/16 10:21:53;;;;;;;5.68;3.67;;;;;;;7.89;75.21;101425.50;6218964;23;20013;-76
2023/03/16 10:24:41;;;;;;;4.07;3.60;;;;;;;8.03;75.49;101425.25;6219574;22;20029;-74
2023/03/16 10:27:19;;;;;;;4.35;3.47;;;;;;;8.14;75.15;101417.88;6218110;23;20488;-74
2023/03/16 10:29:46;;;;;;;3.55;3.25;;;;;;;8.30;73.93;101410.00;6220617;22;20083;-74
2023/03/16 10:32:18;;;;;;;4.18;3.67;;;;;;;8.33;73.04;101414.53;6219895;22;20017;-75
2023/03/16 10:34:55;;;;;;;6.35;3.65;;;;;;;8.39;73.38;101411.41;6193846;23;20028;-74
2023/03/16 10:37:23;;;;;;;6.05;3.50;;;;;;;8.48;72.15;101404.38;6220206;22;20013;-74
2023/03/16 10:39:49;;;;;;;7.20;2.90;;;;;;;8.59;71.34;101406.84;6220237;22;20017;-75
2023/03/16 10:42:20;;;;;;;3.53;3.22;;;;;;;8.74;71.52;101402.00;6219353;23;20017;-76
2023/03/16 10:44:47;;;;;;;6.93;3.33;;;;;;;8.88;71.14;101394.47;6220251;22;20479;-76
2023/03/16 10:47:21;;;;;;;4.47;3.58;;;;;;;8.93;70.71;101391.34;6219289;22;20017;-75
2023/03/16 10:49:50;;;;;;;5.25;3.78;;;;;;;9.02;70.86;101396.84;6220238;22;20021;-74
2023/03/16 10:52:19;;;;;;;4.30;3.30;;;;;;;9.16;69.82;101403.78;6218521;23;20525;-75
2023/03/16 10:54:56;;;;;;;3.60;3.25;;;;;;;9.17;69.75;101389.31;6220215;23;20430;-75
2023/03/16 10:57:24;;;;;;;4.50;3.30;;;;;;;9.17;68.83;101391.97;6219555;22;20024;-74
2023/03/16 10:59:58;;;;;;;3.80;3.30;;;;;;;9.16;68.79;101387.09;6220510;22;20508;-74
2023/03/16 11:02:33;;;;;;;7.85;3.50;;;;;;;9.21;69.09;101379.34;6219962;22;20477;-74
2023/03/16 11:05:12;;;;;;;5.93;3.00;;;;;;;9.22;68.36;101388.06;6220188;22;20471;-74
2023/03/16 11:07:47;;;;;;;11.15;2.95;;;;;;;9.24;67.75;101385.75;6221183;22;20462;-73
2023/03/16 11:10:26;;;;;;;5.40;3.28;;;;;;;9.22;69.08;101375.53;6219453;22;20017;-75
2023/03/16 11:12:54;;;;;;;5.50;3.42;;;;;;;9.24;67.47;101375.84;6220431;23;20019;-75
2023/03/16 11:15:23;;;;;;;5.10;3.22;;;;;;;9.33;67.92;101375.28;6225218;22;20913;-76
2023/03/16 11:17:54;;;;;;;8.90;3.45;;;;;;;9.43;66.63;101360.25;6220162;22;20085;-76
2023/03/16 11:20:25;;;;;;;3.90;3.38;;;;;;;9.44;66.60;101369.72;6219871;22;20021;-76
2023/03/16 11:22:52;;;;;;;3.70;3.22;;;;;;;9.44;66.47;101367.81;6219194;23;20329;-76
2023/03/16 11:25:29;;;;;;;7.78;3.33;;;;;;;9.42;66.63;101351.53;6219138;23;20076;-75
2023/03/16 11:28:07;;;;;;;5.03;3.03;;;;;;;9.41;67.17;101342.09;6218456;23;20016;-76
2023/03/16 11:31:06;;;;;;;4.70;3.30;;;;;;;9.45;66.71;101342.00;6220093;22;20013;-76
2023/03/16 11:33:33;;;;;;;4.07;3.65;;;;;;;9.49;66.17;101340.75;6219591;23;20024;-77
2023/03/16 11:36:11;;;;;;;3.65;3.35;;;;;;;9.55;66.76;101336.44;6218297;23;20404;-77
2023/03/16 11:38:45;;;;;;;4.00;3.55;;;;;;;9.62;65.88;101338.13;6219788;22;20047;-77
2023/03/16 11:41:25;;;;;;;3.85;3.42;;;;;;;9.65;65.86;101335.41;6218954;22;20100;-75
2023/03/16 11:43:58;;;;;;;4.47;3.15;;;;;;;9.69;65.83;101335.31;6219651;22;20020;-75
2023/03/16 11:46:34;;;;;;;4.80;3.13;;;;;;;9.76;65.94;101329.81;6219359;22;20021;-75
2023/03/16 11:49:38;;;;;;;4.40;3.30;;;;;;;9.86;66.06;101328.81;6220196;22;20013;-75
2023/03/16 11:52:10;;;;;;;4.47;3.10;;;;;;;9.91;65.03;101330.19;6220412;23;20102;-76